Time;durP1;ratioP1;P1;durP2;ratioP2;P2;SDS_P1;SDS_P2;PMS_P1;PMS_P2;Temp;Humidity;BMP_temperature;BMP_pressure;BME280_temperature;BME280_humidity;BME280_pressure;Samples;Min_cycle;Max_cycle;Signal;HPM_P1;HPM_P2
2022/01/22 00:00:09;;;;;;;6.65;1.58;;;;;;;;;;5044570;28;20086;-77
2022/01/22 00:02:36;;;;;;;13.32;2.28;;;;;;;;;;5044309;28;20068;-77
2022/01/22 00:05:03;;;;;;;5.55;1.15;;;;;;;;;;5060193;28;20147;-76
2022/01/22 00:07:29;;;;;;;5.53;2.08;;;;;;;;;;5063367;28;20440;-76
2022/01/22 00:10:00;;;;;;;1.75;0.80;;;;;;;;;;5061163;28;20033;-76
2022/01/22 00:12:45;;;;;;;7.50;1.23;;;;;;;;;;5044560;28;20119;-77
2022/01/22 00:15:13;;;;;;;6.63;1.83;;;;;;;;;;5061248;28;20041;-75
2022/01/22 00:17:40;;;;;;;9.68;1.55;;;;;;;;;;5057771;28;20041;-77
2022/01/22 00:20:07;;;;;;;6.63;2.47;;;;;;;;;;5062538;28;20076;-75
2022/01/22 00:22:35;;;;;;;4.63;0.98;;;;;;;;;;5042931;28;20080;-76
2022/01/22 00:25:02;;;;;;;6.93;1.23;;;;;;;;;;5062411;28;20048;-74
2022/01/22 00:27:28;;;;;;;3.92;1.02;;;;;;;;;;5043972;28;20090;-75
2022/01/22 00:29:55;;;;;;;8.80;0.77;;;;;;;;;;5043725;28;20048;-74
2022/01/22 00:32:21;;;;;;;2.50;0.77;;;;;;;;;;5059635;28;20029;-76
2022/01/22 00:34:48;;;;;;;4.45;0.93;;;;;;;;;;5061936;28;20045;-75
2022/01/22 00:37:14;;;;;;;5.90;0.80;;;;;;;;;;5061120;28;20515;-78
2022/01/22 00:39:40;;;;;;;2.97;0.98;;;;;;;;;;5061844;28;20052;-76
2022/01/22 00:42:11;;;;;;;4.38;1.10;;;;;;;;;;5044467;28;20044;-74
2022/01/22 00:44:37;;;;;;;7.03;1.00;;;;;;;;;;5060842;28;20055;-75
2022/01/22 00:47:04;;;;;;;10.23;1.77;;;;;;;;;;5061633;28;20032;-78
2022/01/22 00:49:30;;;;;;;5.28;1.40;;;;;;;;;;5046092;28;20044;-75
2022/01/22 00:51:56;;;;;;;5.47;1.02;;;;;;;;;;5044243;28;20108;-77
2022/01/22 00:54:22;;;;;;;5.10;1.00;;;;;;;;;;5045554;28;20036;-76
2022/01/22 00:56:48;;;;;;;4.93;1.05;;;;;;;;;;5061976;28;20044;-75
2022/01/22 00:59:14;;;;;;;6.05;0.73;;;;;;;;;;5043057;28;20064;-76
2022/01/22 01:01:40;;;;;;;2.10;0.80;;;;;;;;;;5061838;28;20528;-75
2022/01/22 01:04:09;;;;;;;3.28;0.90;;;;;;;;;;5061749;28;20044;-76
2022/01/22 01:06:35;;;;;;;3.10;0.52;;;;;;;;;;5045705;28;20517;-75
2022/01/22 01:09:03;;;;;;;3.65;0.98;;;;;;;;;;5060691;28;20043;-76
2022/01/22 01:11:31;;;;;;;4.00;1.00;;;;;;;;;;5043374;28;20405;-75
2022/01/22 01:14:00;;;;;;;4.47;0.68;;;;;;;;;;5060148;28;20496;-75
2022/01/22 01:35:31;;;;;;;3.60;0.75;;;;;;;;;;5061651;28;20040;-75
2022/01/22 01:38:00;;;;;;;4.10;0.73;;;;;;;;;;5043007;28;20033;-75
2022/01/22 01:40:28;;;;;;;6.35;0.70;;;;;;;;;;5043934;28;20499;-76
2022/01/22 01:45:23;;;;;;;7.20;1.75;;;;;;;;;;5060526;28;20052;-75
2022/01/22 01:47:53;;;;;;;4.00;0.65;;;;;;;;;;5043377;28;20043;-72
2022/01/22 01:50:19;;;;;;;1.70;0.50;;;;;;;;;;5061510;28;20033;-77
2022/01/22 01:52:51;;;;;;;4.90;0.80;;;;;;;;;;5034187;28;20041;-75
2022/01/22 01:55:21;;;;;;;4.65;0.98;;;;;;;;;;5050612;28;20110;-78
2022/01/22 01:57:48;;;;;;;2.38;1.25;;;;;;;;;;5050791;28;20084;-74
2022/01/22 02:00:16;;;;;;;3.53;0.68;;;;;;;;;;5050818;28;20048;-76
2022/01/22 02:02:43;;;;;;;10.65;1.80;;;;;;;;;;5050984;28;20049;-76
2022/01/22 02:05:11;;;;;;;3.38;0.98;;;;;;;;;;5050677;28;20041;-75
2022/01/22 02:07:39;;;;;;;9.43;1.50;;;;;;;;;;5033841;28;20037;-76
2022/01/22 02:10:07;;;;;;;4.90;0.95;;;;;;;;;;5050157;28;20041;-76
2022/01/22 02:25:58;;;;;;;3.25;0.63;;;;;;;;;;5050695;28;20037;-75
2022/01/22 02:28:24;;;;;;;3.08;0.60;;;;;;;;;;5050279;28;20051;-76
2022/01/22 02:30:56;;;;;;;3.40;0.60;;;;;;;;;;5033773;28;20037;-75
2022/01/22 02:33:42;;;;;;;4.28;0.50;;;;;;;;;;5034001;28;20041;-74
2022/01/22 02:39:04;;;;;;;12.88;1.00;;;;;;;;;;5050144;28;20037;-77
2022/01/22 02:41:30;;;;;;;4.03;0.63;;;;;;;;;;5033970;28;20151;-76
2022/01/22 02:43:57;;;;;;;3.78;0.60;;;;;;;;;;5050448;28;20357;-76
2022/01/22 02:46:24;;;;;;;6.18;2.17;;;;;;;;;;5033280;28;20037;-74
2022/01/22 02:48:51;;;;;;;5.00;0.93;;;;;;;;;;5050492;28;20087;-77
2022/01/22 02:51:17;;;;;;;2.95;0.65;;;;;;;;;;5050092;28;20436;-77
2022/01/22 02:53:43;;;;;;;3.60;0.80;;;;;;;;;;5033704;28;20037;-76
2022/01/22 02:56:10;;;;;;;3.88;0.80;;;;;;;;;;5050719;28;20041;-76
2022/01/22 02:58:36;;;;;;;5.60;0.80;;;;;;;;;;5050065;28;20049;-76
2022/01/22 03:01:02;;;;;;;5.53;1.23;;;;;;;;;;5033506;28;20040;-75
2022/01/22 03:03:28;;;;;;;3.78;0.82;;;;;;;;;;5033478;28;20052;-76
2022/01/22 03:05:54;;;;;;;6.85;1.30;;;;;;;;;;5049763;28;20614;-76
2022/01/22 03:08:24;;;;;;;5.38;0.93;;;;;;;;;;5049956;28;20052;-76
2022/01/22 03:10:52;;;;;;;1.23;0.47;;;;;;;;;;5033357;28;20526;-76
2022/01/22 03:18:42;;;;;;;6.50;0.70;;;;;;;;;;5050260;28;20056;-77
2022/01/22 03:21:25;;;;;;;6.55;0.68;;;;;;;;;;5050268;28;20532;-76
2022/01/22 03:29:31;;;;;;;4.03;1.00;;;;;;;;;;5053556;28;20077;-76
2022/01/22 03:31:57;;;;;;;6.00;0.93;;;;;;;;;;5053261;28;20087;-76
2022/01/22 03:34:23;;;;;;;6.88;1.08;;;;;;;;;;5037037;28;20397;-76
2022/01/22 03:36:49;;;;;;;3.15;0.70;;;;;;;;;;5053148;28;20045;-76
2022/01/22 03:39:15;;;;;;;3.78;1.05;;;;;;;;;;5036601;28;20045;-77
2022/01/22 03:41:41;;;;;;;4.28;1.35;;;;;;;;;;5036470;28;20121;-77
2022/01/22 03:44:08;;;;;;;4.82;0.73;;;;;;;;;;5036864;28;20480;-77
2022/01/22 03:46:36;;;;;;;1.70;0.47;;;;;;;;;;5053252;28;20555;-76
2022/01/22 03:49:02;;;;;;;3.40;0.95;;;;;;;;;;5036220;28;20067;-75
2022/01/22 03:51:28;;;;;;;4.28;0.98;;;;;;;;;;5036220;28;20390;-76
2022/01/22 03:53:54;;;;;;;2.85;0.65;;;;;;;;;;5036297;28;20127;-75
2022/01/22 03:56:20;;;;;;;2.95;0.43;;;;;;;;;;5036058;28;20457;-75
2022/01/22 03:58:46;;;;;;;4.28;0.80;;;;;;;;;;5053091;28;20049;-77
2022/01/22 04:04:04;;;;;;;;;;;;;;;;;;5053299;28;20056;-77
2022/01/22 04:08:59;;;;;;;2.25;0.98;;;;;;;;;;5052721;28;20048;-76
2022/01/22 04:11:25;;;;;;;3.30;0.70;;;;;;;;;;5036071;28;20049;-76
2022/01/22 04:13:57;;;;;;;4.65;0.88;;;;;;;;;;5036075;28;20049;-75
2022/01/22 04:16:23;;;;;;;3.60;0.68;;;;;;;;;;5052843;28;20111;-75
2022/01/22 04:27:10;;;;;;;2.97;0.60;;;;;;;;;;5052926;28;20080;-76
2022/01/22 04:29:36;;;;;;;1.90;0.73;;;;;;;;;;5035748;28;20546;-76
2022/01/22 04:32:03;;;;;;;4.22;0.70;;;;;;;;;;5052244;28;20124;-77
2022/01/22 04:34:29;;;;;;;0.93;0.45;;;;;;;;;;5051889;28;20036;-74
2022/01/22 04:36:55;;;;;;;2.58;1.02;;;;;;;;;;5035416;28;20041;-76
2022/01/22 04:39:22;;;;;;;2.35;0.80;;;;;;;;;;5052284;28;20045;-76
2022/01/22 04:41:49;;;;;;;3.22;0.68;;;;;;;;;;5035171;28;20037;-76
2022/01/22 04:44:15;;;;;;;1.85;0.65;;;;;;;;;;5051750;28;20045;-75
2022/01/22 04:52:29;;;;;;;1.45;0.50;;;;;;;;;;5052155;28;20040;-78
2022/01/22 04:55:02;;;;;;;3.60;0.85;;;;;;;;;;5051905;28;20072;-76
2022/01/22 04:57:33;;;;;;;1.60;0.50;;;;;;;;;;5051899;28;20059;-76
2022/01/22 04:59:59;;;;;;;1.30;0.57;;;;;;;;;;5034915;28;20401;-74
2022/01/22 05:02:25;;;;;;;5.20;1.63;;;;;;;;;;5051678;28;20045;-75
2022/01/22 05:04:52;;;;;;;2.63;0.75;;;;;;;;;;5051849;28;20047;-76
2022/01/22 05:07:18;;;;;;;3.70;1.10;;;;;;;;;;5051452;28;20048;-76
2022/01/22 05:09:44;;;;;;;2.05;0.50;;;;;;;;;;5034960;28;20041;-76
2022/01/22 05:12:10;;;;;;;3.38;0.60;;;;;;;;;;5051290;28;20086;-77
2022/01/22 05:14:36;;;;;;;1.60;0.77;;;;;;;;;;5035080;28;20481;-77
2022/01/22 05:17:04;;;;;;;3.63;0.52;;;;;;;;;;5051510;28;20191;-76
2022/01/22 05:22:19;;;;;;;6.68;1.00;;;;;;;;;;5051488;28;20047;-77
2022/01/22 05:24:51;;;;;;;1.08;0.40;;;;;;;;;;5051229;28;20131;-77
2022/01/22 05:27:33;;;;;;;;;;;;;;;;;;5051722;28;20606;-76
2022/01/22 05:30:24;;;;;;;0.80;0.68;;;;;;;;;;5051041;28;19956;-76
2022/01/22 05:38:07;;;;;;;4.43;0.63;;;;;;;;;;5050999;28;20049;-75
2022/01/22 05:40:33;;;;;;;3.63;0.55;;;;;;;;;;5051183;28;20484;-76
2022/01/22 05:42:59;;;;;;;4.93;1.00;;;;;;;;;;5034027;28;20098;-75
2022/01/22 05:45:25;;;;;;;4.10;0.60;;;;;;;;;;5034188;28;20132;-75
2022/01/22 05:47:51;;;;;;;4.45;0.60;;;;;;;;;;5050756;28;20051;-75
2022/01/22 05:50:33;;;;;;;5.18;0.70;;;;;;;;;;5050690;28;20044;-77
2022/01/22 05:53:05;;;;;;;2.13;0.60;;;;;;;;;;5034433;28;20047;-75
2022/01/22 06:01:00;;;;;;;1.55;0.57;;;;;;;;;;5050498;28;20135;-74
2022/01/22 06:03:26;;;;;;;3.38;0.63;;;;;;;;;;5050247;28;20101;-75
2022/01/22 06:05:52;;;;;;;1.23;0.90;;;;;;;;;;5039006;28;20044;-77
2022/01/22 06:08:18;;;;;;;2.97;0.70;;;;;;;;;;5043939;28;20044;-76
2022/01/22 06:10:47;;;;;;;35.10;2.90;;;;;;;;;;5043336;28;20029;-76
2022/01/22 06:13:17;;;;;;;5.35;1.23;;;;;;;;;;5042420;28;20552;-74
2022/01/22 06:15:43;;;;;;;3.72;1.02;;;;;;;;;;5059886;28;20131;-75
2022/01/22 06:18:09;;;;;;;8.27;1.50;;;;;;;;;;5043865;28;20208;-74
2022/01/22 06:20:35;;;;;;;6.10;0.77;;;;;;;;;;5058587;28;20485;-75
2022/01/22 06:23:02;;;;;;;2.03;0.75;;;;;;;;;;5043417;28;20113;-76
2022/01/22 06:25:28;;;;;;;3.42;0.77;;;;;;;;;;5043781;28;20511;-74
2022/01/22 06:27:54;;;;;;;3.42;0.65;;;;;;;;;;5041968;28;20397;-74
2022/01/22 06:30:20;;;;;;;2.00;0.77;;;;;;;;;;5043650;28;20033;-74
2022/01/22 06:32:46;;;;;;;2.47;0.60;;;;;;;;;;5059958;28;20041;-76
2022/01/22 06:35:12;;;;;;;5.60;0.88;;;;;;;;;;5058895;28;20129;-74
2022/01/22 06:37:38;;;;;;;2.63;0.82;;;;;;;;;;5044181;28;20040;-77
2022/01/22 06:42:33;;;;;;;6.50;1.45;;;;;;;;;;5058420;28;20049;-74
2022/01/22 06:45:00;;;;;;;5.32;0.80;;;;;;;;;;5044670;28;20183;-77
2022/01/22 06:47:26;;;;;;;2.85;0.77;;;;;;;;;;5037571;28;20083;-75
2022/01/22 06:49:53;;;;;;;2.90;1.30;;;;;;;;;;5049994;28;20072;-75
2022/01/22 06:52:19;;;;;;;2.45;0.75;;;;;;;;;;5033260;28;20515;-75
2022/01/22 06:54:45;;;;;;;2.55;0.88;;;;;;;;;;5033322;28;20037;-76
2022/01/22 06:57:12;;;;;;;3.30;0.70;;;;;;;;;;5049186;28;20040;-75
2022/01/22 06:59:38;;;;;;;3.83;1.20;;;;;;;;;;5034052;28;20045;-75
2022/01/22 07:02:04;;;;;;;2.58;0.70;;;;;;;;;;5033415;28;20060;-75
2022/01/22 07:04:31;;;;;;;5.60;0.88;;;;;;;;;;5050464;28;20493;-74
2022/01/22 07:06:57;;;;;;;3.63;0.70;;;;;;;;;;5033483;28;20428;-75
2022/01/22 07:09:24;;;;;;;4.18;0.65;;;;;;;;;;5034129;28;20048;-73
2022/01/22 07:11:50;;;;;;;4.45;0.82;;;;;;;;;;5033387;28;20064;-75
2022/01/22 07:14:16;;;;;;;2.45;0.90;;;;;;;;;;5033178;28;20127;-76
2022/01/22 07:16:42;;;;;;;6.70;0.60;;;;;;;;;;5050226;28;20041;-76
2022/01/22 07:19:08;;;;;;;2.63;0.70;;;;;;;;;;5033380;28;20041;-76
2022/01/22 07:21:36;;;;;;;3.47;0.70;;;;;;;;;;5050225;28;20433;-76
2022/01/22 07:26:29;;;;;;;1.83;0.50;;;;;;;;;;5050071;28;20092;-78
2022/01/22 07:28:55;;;;;;;4.65;0.75;;;;;;;;;;5036618;28;20572;-76
2022/01/22 07:31:23;;;;;;;3.13;1.10;;;;;;;;;;5053134;28;20037;-76
2022/01/22 07:33:49;;;;;;;2.72;0.70;;;;;;;;;;5053632;28;20046;-76
2022/01/22 07:36:15;;;;;;;3.78;0.90;;;;;;;;;;5037068;28;20463;-74
2022/01/22 07:38:41;;;;;;;4.40;1.23;;;;;;;;;;5036675;28;20052;-74
2022/01/22 07:41:07;;;;;;;3.63;0.90;;;;;;;;;;5037470;28;20587;-73
2022/01/22 07:43:34;;;;;;;3.70;1.10;;;;;;;;;;5036492;28;20652;-74
2022/01/22 07:46:00;;;;;;;4.47;1.58;;;;;;;;;;5036369;28;20516;-75
2022/01/22 07:48:26;;;;;;;5.60;2.03;;;;;;;;;;5036396;28;20416;-74
2022/01/22 07:50:52;;;;;;;4.20;1.27;;;;;;;;;;5036478;28;20094;-73
2022/01/22 07:53:18;;;;;;;2.45;1.23;;;;;;;;;;5036280;28;20033;-73
2022/01/22 07:55:44;;;;;;;2.50;0.70;;;;;;;;;;5036089;28;20033;-74
2022/01/22 07:58:11;;;;;;;2.58;0.60;;;;;;;;;;5052907;28;20056;-74
2022/01/22 08:00:37;;;;;;;4.40;1.02;;;;;;;;;;5053000;28;20515;-74
2022/01/22 08:03:04;;;;;;;5.85;0.95;;;;;;;;;;5036020;28;20143;-75
2022/01/22 08:05:30;;;;;;;4.57;1.20;;;;;;;;;;5036011;28;20107;-76
2022/01/22 08:07:56;;;;;;;1.88;0.60;;;;;;;;;;5035976;28;20041;-75
2022/01/22 08:10:22;;;;;;;1.63;0.50;;;;;;;;;;5034614;28;20508;-74
2022/01/22 08:12:50;;;;;;;4.22;0.70;;;;;;;;;;5052574;28;20037;-75
2022/01/22 08:15:16;;;;;;;2.17;0.40;;;;;;;;;;5036038;28;20095;-76
2022/01/22 08:17:43;;;;;;;3.05;0.77;;;;;;;;;;5035936;28;20132;-76
2022/01/22 08:20:12;;;;;;;2.67;0.70;;;;;;;;;;5052619;28;20082;-75
2022/01/22 08:22:38;;;;;;;1.27;0.55;;;;;;;;;;5052616;28;20056;-75
2022/01/22 08:25:04;;;;;;;1.08;0.73;;;;;;;;;;5052362;28;20131;-74
2022/01/22 08:29:57;;;;;;;4.60;0.80;;;;;;;;;;5052424;28;20132;-74
2022/01/22 08:37:39;;;;;;;3.00;0.80;;;;;;;;;;5052350;28;20041;-74
2022/01/22 08:40:06;;;;;;;1.58;0.65;;;;;;;;;;5035684;28;20037;-74
2022/01/22 08:42:32;;;;;;;1.88;0.93;;;;;;;;;;5035421;28;20094;-74
2022/01/22 08:44:58;;;;;;;3.70;1.35;;;;;;;;;;5035388;28;20045;-75
2022/01/22 08:47:24;;;;;;;2.03;0.70;;;;;;;;;;5051789;28;20041;-74
2022/01/22 08:49:50;;;;;;;0.63;0.32;;;;;;;;;;5051911;28;20041;-74
2022/01/22 08:52:17;;;;;;;3.22;0.60;;;;;;;;;;5051668;28;20041;-75
2022/01/22 08:54:44;;;;;;;2.30;0.52;;;;;;;;;;5051791;28;20471;-74
2022/01/22 08:57:10;;;;;;;2.53;0.80;;;;;;;;;;5035182;28;20041;-75
2022/01/22 08:59:36;;;;;;;2.45;0.55;;;;;;;;;;5051873;28;20049;-73
2022/01/22 09:02:03;;;;;;;2.58;0.60;;;;;;;;;;5051690;28;20057;-74
2022/01/22 09:04:30;;;;;;;2.67;0.93;;;;;;;;;;5034864;28;20047;-73
2022/01/22 09:06:57;;;;;;;3.03;0.85;;;;;;;;;;5034856;28;20408;-74
2022/01/22 09:09:23;;;;;;;1.63;0.52;;;;;;;;;;5051417;28;20041;-74
2022/01/22 09:11:49;;;;;;;1.02;0.43;;;;;;;;;;5034959;28;20481;-74
2022/01/22 09:14:17;;;;;;;0.60;0.40;;;;;;;;;;5034784;28;20039;-74
2022/01/22 09:16:44;;;;;;;3.33;0.55;;;;;;;;;;5051571;28;20037;-75
2022/01/22 09:19:11;;;;;;;3.10;0.57;;;;;;;;;;5034784;28;20039;-74
2022/01/22 09:21:39;;;;;;;1.70;0.60;;;;;;;;;;5034234;28;20037;-75
2022/01/22 09:24:05;;;;;;;1.42;0.70;;;;;;;;;;5050989;28;20033;-75
2022/01/22 09:26:31;;;;;;;1.63;0.70;;;;;;;;;;5051320;28;20041;-73
2022/01/22 09:29:00;;;;;;;3.10;0.77;;;;;;;;;;5051057;28;20045;-73
2022/01/22 09:31:26;;;;;;;2.05;0.70;;;;;;;;;;5050877;28;20049;-74
2022/01/22 09:33:55;;;;;;;2.28;1.10;;;;;;;;;;5050879;28;20405;-74
2022/01/22 09:36:21;;;;;;;1.77;0.45;;;;;;;;;;5034458;28;20557;-73
2022/01/22 09:38:47;;;;;;;1.50;0.40;;;;;;;;;;5050918;28;20051;-74
2022/01/22 09:41:14;;;;;;;2.95;0.40;;;;;;;;;;5050859;28;20128;-74
2022/01/22 09:43:40;;;;;;;1.42;0.43;;;;;;;;;;5034382;28;20673;-75
2022/01/22 09:46:07;;;;;;;1.00;0.60;;;;;;;;;;5034112;28;20079;-74
2022/01/22 09:48:33;;;;;;;1.75;0.70;;;;;;;;;;5034024;28;20037;-73
2022/01/22 09:50:59;;;;;;;1.02;0.50;;;;;;;;;;5033850;28;20047;-75
2022/01/22 09:53:25;;;;;;;3.70;0.73;;;;;;;;;;5050534;28;20424;-74
2022/01/22 09:55:51;;;;;;;2.47;0.55;;;;;;;;;;5034014;28;20449;-73
2022/01/22 09:58:18;;;;;;;3.70;0.68;;;;;;;;;;5033922;28;20045;-75
2022/01/22 10:00:44;;;;;;;1.13;0.32;;;;;;;;;;5050367;28;20049;-75
2022/01/22 10:03:17;;;;;;;4.75;0.73;;;;;;;;;;5033721;28;20100;-74
2022/01/22 10:05:43;;;;;;;3.35;1.00;;;;;;;;;;5050682;28;20071;-74
2022/01/22 10:08:28;;;;;;;2.03;0.47;;;;;;;;;;5050509;28;20045;-73
2022/01/22 10:10:55;;;;;;;1.10;0.57;;;;;;;;;;5033990;28;20083;-73
2022/01/22 10:13:38;;;;;;;2.22;0.82;;;;;;;;;;5050263;28;20048;-74
2022/01/22 10:16:15;;;;;;;2.28;0.57;;;;;;;;;;5033654;28;20037;-75
2022/01/22 10:18:41;;;;;;;1.23;0.75;;;;;;;;;;5033865;28;20485;-75
2022/01/22 10:21:12;;;;;;;3.22;0.60;;;;;;;;;;5033665;28;20045;-73
2022/01/22 10:23:41;;;;;;;2.80;0.70;;;;;;;;;;5033888;28;20040;-74
2022/01/22 10:26:11;;;;;;;2.05;0.50;;;;;;;;;;5050170;28;20045;-74
2022/01/22 10:28:48;;;;;;;2.90;0.77;;;;;;;;;;5033691;28;20041;-74
2022/01/22 10:31:21;;;;;;;1.35;0.60;;;;;;;;;;5033444;28;20032;-74
2022/01/22 10:34:03;;;;;;;2.20;0.70;;;;;;;;;;5032807;28;20048;-74
2022/01/22 10:36:29;;;;;;;2.60;0.70;;;;;;;;;;5050286;28;20033;-74
2022/01/22 10:38:55;;;;;;;2.20;0.75;;;;;;;;;;5033901;28;20045;-73
2022/01/22 10:41:39;;;;;;;2.33;0.88;;;;;;;;;;5050078;28;20036;-73
2022/01/22 10:44:08;;;;;;;1.17;0.73;;;;;;;;;;5033284;28;20528;-73
2022/01/22 10:49:12;;;;;;;5.85;0.80;;;;;;;;;;5050346;28;20084;-75
2022/01/22 10:51:46;;;;;;;0.57;0.52;;;;;;;;;;5050276;28;20063;-74
2022/01/22 10:54:12;;;;;;;2.88;0.50;;;;;;;;;;5033898;28;20068;-74
2022/01/22 10:56:40;;;;;;;2.45;0.70;;;;;;;;;;5050942;28;20086;-74
2022/01/22 10:59:07;;;;;;;1.20;0.50;;;;;;;;;;5050620;28;20119;-74
2022/01/22 11:01:39;;;;;;;2.30;0.70;;;;;;;;;;5033293;28;20041;-74
2022/01/22 11:04:07;;;;;;;4.80;0.70;;;;;;;;;;5049766;28;20043;-74
2022/01/22 11:06:33;;;;;;;3.97;0.70;;;;;;;;;;5033326;28;20094;-74
2022/01/22 11:08:59;;;;;;;3.15;0.80;;;;;;;;;;5049645;28;20036;-74
2022/01/22 11:11:25;;;;;;;4.25;0.70;;;;;;;;;;5049646;28;20127;-74
2022/01/22 11:13:51;;;;;;;3.00;1.15;;;;;;;;;;5050018;28;20044;-74
2022/01/22 11:16:18;;;;;;;1.63;0.82;;;;;;;;;;5049635;28;20040;-74
2022/01/22 11:18:48;;;;;;;1.33;0.70;;;;;;;;;;5033041;28;20052;-75
2022/01/22 11:21:15;;;;;;;3.37;0.73;;;;;;;;;;5033266;28;20132;-74
2022/01/22 11:23:41;;;;;;;2.70;0.73;;;;;;;;;;5049858;28;21039;-74
2022/01/22 11:26:08;;;;;;;3.17;0.90;;;;;;;;;;5049794;28;20037;-74
2022/01/22 11:28:34;;;;;;;3.78;1.33;;;;;;;;;;5032915;28;20074;-74
2022/01/22 11:31:01;;;;;;;2.25;1.15;;;;;;;;;;5032960;28;20378;-74
2022/01/22 11:33:28;;;;;;;4.07;1.00;;;;;;;;;;5049611;28;20138;-74
2022/01/22 11:35:58;;;;;;;5.57;0.90;;;;;;;;;;5049754;28;20033;-74
2022/01/22 11:38:27;;;;;;;2.45;0.95;;;;;;;;;;5032971;28;20493;-74
2022/01/22 11:41:05;;;;;;;1.08;0.68;;;;;;;;;;5033079;28;20041;-74
2022/01/22 11:43:53;;;;;;;3.30;0.95;;;;;;;;;;5033910;28;20047;-74
2022/01/22 11:46:26;;;;;;;3.67;0.80;;;;;;;;;;5053286;28;20509;-74
2022/01/22 11:49:12;;;;;;;4.63;1.30;;;;;;;;;;5052872;28;20049;-74
2022/01/22 11:51:38;;;;;;;4.82;0.95;;;;;;;;;;5053326;28;20551;-74
2022/01/22 11:54:04;;;;;;;2.92;1.08;;;;;;;;;;5036586;28;20086;-74
2022/01/22 11:56:50;;;;;;;3.05;0.80;;;;;;;;;;5052815;28;20040;-74
2022/01/22 11:59:24;;;;;;;5.85;1.75;;;;;;;;;;5052635;28;20120;-74
2022/01/22 12:01:51;;;;;;;2.20;1.08;;;;;;;;;;5052732;28;20405;-74
2022/01/22 12:04:24;;;;;;;7.47;1.40;;;;;;;;;;5036427;28;20041;-74
2022/01/22 12:07:03;;;;;;;4.45;1.33;;;;;;;;;;5036489;28;20044;-74
2022/01/22 12:09:34;;;;;;;5.63;1.90;;;;;;;;;;5052912;28;20115;-74
2022/01/22 12:15:05;;;;;;;4.30;1.50;;;;;;;;;;5052439;28;20135;-74
2022/01/22 12:17:50;;;;;;;4.03;1.00;;;;;;;;;;5052780;28;20047;-73
2022/01/22 12:23:04;;;;;;;6.57;1.50;;;;;;;;;;5052595;28;20037;-74
2022/01/22 12:25:30;;;;;;;4.72;1.60;;;;;;;;;;5052353;28;20449;-74
2022/01/22 12:27:57;;;;;;;5.40;1.85;;;;;;;;;;5035642;28;20044;-74
2022/01/22 12:30:32;;;;;;;4.78;2.00;;;;;;;;;;5052355;28;20033;-74
2022/01/22 12:33:00;;;;;;;4.60;1.80;;;;;;;;;;5035509;28;20561;-74
2022/01/22 12:35:35;;;;;;;3.65;1.40;;;;;;;;;;5035710;28;20081;-73
2022/01/22 12:38:28;;;;;;;6.05;1.70;;;;;;;;;;5035511;28;20076;-75
2022/01/22 12:41:01;;;;;;;6.25;1.92;;;;;;;;;;5046399;28;20057;-75
2022/01/22 12:43:34;;;;;;;3.60;2.10;;;;;;;;;;5052144;28;20041;-74
2022/01/22 12:46:01;;;;;;;5.00;2.17;;;;;;;;;;5051873;28;20044;-74
2022/01/22 12:48:28;;;;;;;6.32;2.28;;;;;;;;;;5051646;28;20405;-75
2022/01/22 12:50:59;;;;;;;11.30;2.17;;;;;;;;;;5051678;28;20076;-75
2022/01/22 12:53:25;;;;;;;5.05;2.15;;;;;;;;;;5051760;28;20095;-74
2022/01/22 12:58:22;;;;;;;8.77;2.78;;;;;;;;;;5051955;28;20135;-74
2022/01/22 13:00:48;;;;;;;4.95;2.33;;;;;;;;;;5052036;28;20072;-74
2022/01/22 13:03:14;;;;;;;4.72;2.40;;;;;;;;;;5051500;28;20080;-74
2022/01/22 13:05:45;;;;;;;7.55;2.17;;;;;;;;;;5051764;28;20045;-74
2022/01/22 13:08:11;;;;;;;;;;;;;;;;;;5035404;28;20048;-75
2022/01/22 13:10:43;;;;;;;5.88;2.40;;;;;;;;;;5051554;28;19935;-77
2022/01/22 13:13:14;;;;;;;7.35;2.92;;;;;;;;;;5034794;28;20037;-75
2022/01/22 13:15:40;;;;;;;10.15;5.70;;;;;;;;;;5035066;28;20127;-76
2022/01/22 13:18:07;;;;;;;10.80;4.30;;;;;;;;;;5051279;28;20585;-77
2022/01/22 13:20:35;;;;;;;12.68;2.42;;;;;;;;;;5051263;28;20063;-76
2022/01/22 13:23:18;;;;;;;5.00;2.35;;;;;;;;;;5034905;28;20099;-75
2022/01/22 13:25:44;;;;;;;3.75;2.17;;;;;;;;;;5034522;28;20037;-76
2022/01/22 13:28:12;;;;;;;6.53;2.10;;;;;;;;;;5051222;28;20613;-77
2022/01/22 13:30:44;;;;;;;4.90;1.83;;;;;;;;;;5051050;28;20119;-75
2022/01/22 13:33:22;;;;;;;7.75;2.88;;;;;;;;;;5051162;28;20155;-76
2022/01/22 13:36:07;;;;;;;7.50;2.80;;;;;;;;;;5051026;28;20120;-76
2022/01/22 13:49:27;;;;;;;4.38;1.92;;;;;;;;;;5050875;28;20064;-76
2022/01/22 13:51:54;;;;;;;4.82;2.72;;;;;;;;;;5034169;28;20420;-75
2022/01/22 13:54:26;;;;;;;4.10;1.95;;;;;;;;;;5033936;28;20041;-76
2022/01/22 13:56:55;;;;;;;6.20;2.17;;;;;;;;;;5050665;28;20076;-77
2022/01/22 13:59:21;;;;;;;7.85;2.85;;;;;;;;;;5050648;28;20508;-77
2022/01/22 14:04:18;;;;;;;9.02;2.15;;;;;;;;;;5050271;28;20041;-76
2022/01/22 14:06:46;;;;;;;4.35;1.65;;;;;;;;;;5033708;28;20047;-76
2022/01/22 14:09:13;;;;;;;6.85;1.70;;;;;;;;;;5033558;28;20040;-76
2022/01/22 14:11:59;;;;;;;7.93;1.98;;;;;;;;;;5033489;28;20041;-75
2022/01/22 14:14:25;;;;;;;6.60;1.88;;;;;;;;;;5033540;28;20041;-76
2022/01/22 14:17:08;;;;;;;5.05;1.50;;;;;;;;;;5050245;28;20090;-77
2022/01/22 14:19:34;;;;;;;4.18;1.63;;;;;;;;;;5051290;28;20045;-77
2022/01/22 14:22:00;;;;;;;3.55;1.88;;;;;;;;;;5050720;28;20045;-77
2022/01/22 14:24:30;;;;;;;5.57;1.90;;;;;;;;;;5034001;28;20071;-76
2022/01/22 14:26:57;;;;;;;6.78;2.22;;;;;;;;;;5050219;28;20045;-75
2022/01/22 14:29:23;;;;;;;7.05;1.85;;;;;;;;;;5033576;28;20147;-75
2022/01/22 14:31:50;;;;;;;6.00;1.85;;;;;;;;;;5050059;28;20072;-75
2022/01/22 14:34:33;;;;;;;3.83;1.52;;;;;;;;;;5033713;28;20033;-75
2022/01/22 14:36:59;;;;;;;3.95;2.00;;;;;;;;;;5050321;28;20037;-75
2022/01/22 14:44:41;;;;;;;5.65;1.73;;;;;;;;;;5050273;28;20084;-76
2022/01/22 14:47:18;;;;;;;9.85;2.10;;;;;;;;;;5049839;28;20048;-76
2022/01/22 14:49:49;;;;;;;4.15;1.95;;;;;;;;;;5033430;28;20037;-76
2022/01/22 14:52:15;;;;;;;;;;;;;;;;;;5033874;28;20397;-75
2022/01/22 14:54:43;;;;;;;6.45;2.30;;;;;;;;;;5033049;28;19921;-75
2022/01/22 14:57:09;;;;;;;3.60;2.10;;;;;;;;;;5033747;28;20385;-74
2022/01/22 14:59:36;;;;;;;4.28;1.88;;;;;;;;;;5050113;28;20538;-75
2022/01/22 15:02:02;;;;;;;4.53;1.92;;;;;;;;;;5049781;28;20501;-75
2022/01/22 15:04:29;;;;;;;3.63;1.80;;;;;;;;;;5033104;28;20127;-76
2022/01/22 15:06:56;;;;;;;4.30;1.65;;;;;;;;;;5033078;28;20100;-75
2022/01/22 15:09:23;;;;;;;4.20;2.78;;;;;;;;;;5033138;28;20041;-75
2022/01/22 15:11:49;;;;;;;6.60;2.13;;;;;;;;;;5033205;28;20040;-76
2022/01/22 15:14:15;;;;;;;4.50;1.77;;;;;;;;;;5050164;28;20032;-76
2022/01/22 15:16:48;;;;;;;6.63;1.50;;;;;;;;;;5033208;28;20393;-77
2022/01/22 15:19:17;;;;;;;3.67;1.27;;;;;;;;;;5035195;28;20131;-76
2022/01/22 15:21:44;;;;;;;3.58;1.65;;;;;;;;;;5053741;28;20496;-74
2022/01/22 15:24:10;;;;;;;3.83;1.70;;;;;;;;;;5053360;28;20045;-75
2022/01/22 15:26:36;;;;;;;2.55;1.60;;;;;;;;;;5053736;28;20086;-74
2022/01/22 15:29:03;;;;;;;5.68;1.60;;;;;;;;;;5053454;28;20049;-75
2022/01/22 15:31:32;;;;;;;5.18;1.83;;;;;;;;;;5053292;28;20040;-74
2022/01/22 15:34:09;;;;;;;5.60;1.48;;;;;;;;;;5036927;28;20481;-75
2022/01/22 15:36:35;;;;;;;9.63;2.05;;;;;;;;;;5036647;28;20040;-75
2022/01/22 15:39:03;;;;;;;8.88;2.20;;;;;;;;;;5053486;28;20059;-75
2022/01/22 15:41:29;;;;;;;3.60;1.48;;;;;;;;;;5053174;28;20037;-74
2022/01/22 15:43:55;;;;;;;4.40;1.35;;;;;;;;;;5053337;28;20043;-75
2022/01/22 15:46:21;;;;;;;7.60;1.83;;;;;;;;;;5053243;28;20057;-75
2022/01/22 15:48:48;;;;;;;3.85;1.23;;;;;;;;;;5036232;28;20124;-75
2022/01/22 15:51:14;;;;;;;3.45;1.40;;;;;;;;;;5036606;28;20029;-75
2022/01/22 15:53:40;;;;;;;3.65;1.27;;;;;;;;;;5036456;28;20539;-75
2022/01/22 15:56:06;;;;;;;4.65;1.60;;;;;;;;;;5036232;28;20486;-75
2022/01/22 15:58:33;;;;;;;7.82;1.80;;;;;;;;;;5052715;28;20040;-75
2022/01/22 16:00:59;;;;;;;4.47;1.35;;;;;;;;;;5053038;28;20045;-75
2022/01/22 16:03:25;;;;;;;7.72;1.80;;;;;;;;;;5052664;28;20053;-75
2022/01/22 16:05:56;;;;;;;4.78;1.13;;;;;;;;;;5052775;28;20048;-76
2022/01/22 16:08:22;;;;;;;;;;;;;;;;;;5053137;28;20094;-75
2022/01/22 16:10:48;;;;;;;5.80;2.00;;;;;;;;;;5052710;28;19920;-74
2022/01/22 16:13:18;;;;;;;5.53;2.60;;;;;;;;;;5037009;28;20033;-75
2022/01/22 16:15:44;;;;;;;4.55;2.10;;;;;;;;;;5036573;28;20044;-75
2022/01/22 16:18:10;;;;;;;7.43;1.50;;;;;;;;;;5052784;28;20049;-75
2022/01/22 16:20:36;;;;;;;2.72;1.63;;;;;;;;;;5036268;28;20114;-76
2022/01/22 16:23:02;;;;;;;2.50;1.00;;;;;;;;;;5036007;28;20041;-75
2022/01/22 16:25:28;;;;;;;3.63;1.63;;;;;;;;;;5052152;28;20037;-76
2022/01/22 16:27:54;;;;;;;2.72;1.23;;;;;;;;;;5035559;28;20041;-75
2022/01/22 16:30:20;;;;;;;3.75;1.10;;;;;;;;;;5034533;28;20413;-75
2022/01/22 16:32:46;;;;;;;3.40;1.10;;;;;;;;;;5048577;28;20044;-75
2022/01/22 16:35:14;;;;;;;4.53;1.17;;;;;;;;;;5031919;28;20551;-75
2022/01/22 16:37:41;;;;;;;5.15;1.80;;;;;;;;;;5031424;28;20125;-75
2022/01/22 16:40:13;;;;;;;4.82;1.80;;;;;;;;;;5032074;28;20516;-75
2022/01/22 16:42:46;;;;;;;5.18;2.30;;;;;;;;;;5032291;28;20059;-75
2022/01/22 16:45:47;;;;;;;7.80;2.15;;;;;;;;;;5031799;28;20045;-75
2022/01/22 16:56:27;;;;;;;6.90;3.15;;;;;;;;;;5048214;28;20044;-75
2022/01/22 16:58:56;;;;;;;9.52;3.38;;;;;;;;;;5048199;28;20080;-75
2022/01/22 17:01:28;;;;;;;6.82;2.25;;;;;;;;;;5047868;28;20048;-75